sensor_id;sensor_type;location;lat;lon;timestamp;P1;durP1;ratioP1;P2;durP2;ratioP2
18046;SDS011;9148;51.454;13.862;2022-11-11T00:00:31;3.43;;;2.30;;
18046;SDS011;9148;51.454;13.862;2022-11-11T00:02:57;3.60;;;2.60;;
18046;SDS011;9148;51.454;13.862;2022-11-11T00:05:24;5.07;;;2.07;;
18046;SDS011;9148;51.454;13.862;2022-11-11T00:07:53;2.40;;;1.87;;
18046;SDS011;9148;51.454;13.862;2022-11-11T00:10:26;2.93;;;1.83;;
18046;SDS011;9148;51.454;13.862;2022-11-11T00:12:58;3.33;;;3.03;;
18046;SDS011;9148;51.454;13.862;2022-11-11T00:15:27;3.77;;;2.70;;
18046;SDS011;9148;51.454;13.862;2022-11-11T00:17:54;5.13;;;3.53;;
18046;SDS011;9148;51.454;13.862;2022-11-11T00:20:38;3.00;;;2.80;;
18046;SDS011;9148;51.454;13.862;2022-11-11T00:23:24;3.50;;;2.30;;
18046;SDS011;9148;51.454;13.862;2022-11-11T00:26:27;3.23;;;2.40;;
18046;SDS011;9148;51.454;13.862;2022-11-11T00:28:53;4.93;;;2.73;;
18046;SDS011;9148;51.454;13.862;2022-11-11T00:31:18;4.63;;;2.27;;
18046;SDS011;9148;51.454;13.862;2022-11-11T00:33:44;5.00;;;2.50;;
18046;SDS011;9148;51.454;13.862;2022-11-11T00:36:09;2.33;;;2.00;;
18046;SDS011;9148;51.454;13.862;2022-11-11T00:38:35;2.37;;;2.13;;
18046;SDS011;9148;51.454;13.862;2022-11-11T00:41:11;4.27;;;2.50;;
18046;SDS011;9148;51.454;13.862;2022-11-11T00:43:42;2.13;;;1.93;;
18046;SDS011;9148;51.454;13.862;2022-11-11T00:46:10;5.80;;;3.23;;
18046;SDS011;9148;51.454;13.862;2022-11-11T00:48:58;8.40;;;3.87;;
18046;SDS011;9148;51.454;13.862;2022-11-11T00:51:43;2.67;;;2.40;;
18046;SDS011;9148;51.454;13.862;2022-11-11T00:54:09;2.27;;;2.03;;
18046;SDS011;9148;51.454;13.862;2022-11-11T00:56:36;3.00;;;2.30;;
18046;SDS011;9148;51.454;13.862;2022-11-11T00:59:03;3.23;;;2.83;;
18046;SDS011;9148;51.454;13.862;2022-11-11T01:01:31;3.67;;;2.63;;
18046;SDS011;9148;51.454;13.862;2022-11-11T01:03:58;4.03;;;1.87;;
18046;SDS011;9148;51.454;13.862;2022-11-11T01:06:24;5.57;;;2.40;;
18046;SDS011;9148;51.454;13.862;2022-11-11T01:08:50;2.30;;;2.10;;
18046;SDS011;9148;51.454;13.862;2022-11-11T01:11:17;3.80;;;2.13;;
18046;SDS011;9148;51.454;13.862;2022-11-11T01:13:46;2.87;;;1.90;;
18046;SDS011;9148;51.454;13.862;2022-11-11T01:16:20;5.83;;;2.57;;
18046;SDS011;9148;51.454;13.862;2022-11-11T01:18:49;2.87;;;2.47;;
18046;SDS011;9148;51.454;13.862;2022-11-11T01:21:21;3.10;;;2.03;;
18046;SDS011;9148;51.454;13.862;2022-11-11T01:23:49;4.23;;;2.47;;
18046;SDS011;9148;51.454;13.862;2022-11-11T01:28:50;2.00;;;1.70;;
18046;SDS011;9148;51.454;13.862;2022-11-11T01:31:18;1.50;;;1.33;;
18046;SDS011;9148;51.454;13.862;2022-11-11T01:33:45;1.60;;;1.10;;
18046;SDS011;9148;51.454;13.862;2022-11-11T01:36:13;4.13;;;1.30;;
18046;SDS011;9148;51.454;13.862;2022-11-11T01:38:41;2.40;;;1.13;;
18046;SDS011;9148;51.454;13.862;2022-11-11T01:41:09;2.20;;;1.93;;
18046;SDS011;9148;51.454;13.862;2022-11-11T01:44:19;1.93;;;1.70;;
18046;SDS011;9148;51.454;13.862;2022-11-11T01:47:04;5.07;;;1.90;;
18046;SDS011;9148;51.454;13.862;2022-11-11T01:49:32;3.93;;;1.77;;
18046;SDS011;9148;51.454;13.862;2022-11-11T01:54:58;2.43;;;1.67;;
18046;SDS011;9148;51.454;13.862;2022-11-11T02:00:33;1.83;;;1.73;;
18046;SDS011;9148;51.454;13.862;2022-11-11T02:03:03;3.33;;;2.00;;
18046;SDS011;9148;51.454;13.862;2022-11-11T02:05:31;4.07;;;2.60;;
18046;SDS011;9148;51.454;13.862;2022-11-11T02:08:17;2.57;;;1.97;;
18046;SDS011;9148;51.454;13.862;2022-11-11T02:11:07;7.43;;;2.43;;
18046;SDS011;9148;51.454;13.862;2022-11-11T02:13:41;2.93;;;1.77;;
18046;SDS011;9148;51.454;13.862;2022-11-11T02:16:26;2.17;;;1.87;;
18046;SDS011;9148;51.454;13.862;2022-11-11T02:18:52;2.37;;;2.13;;
18046;SDS011;9148;51.454;13.862;2022-11-11T02:21:41;1.90;;;1.77;;
18046;SDS011;9148;51.454;13.862;2022-11-11T02:24:13;6.43;;;1.70;;
18046;SDS011;9148;51.454;13.862;2022-11-11T02:26:41;2.13;;;1.77;;
18046;SDS011;9148;51.454;13.862;2022-11-11T02:29:12;1.87;;;1.63;;
18046;SDS011;9148;51.454;13.862;2022-11-11T02:31:41;2.63;;;1.87;;
18046;SDS011;9148;51.454;13.862;2022-11-11T02:34:07;2.17;;;1.40;;
18046;SDS011;9148;51.454;13.862;2022-11-11T02:36:32;2.80;;;1.60;;
18046;SDS011;9148;51.454;13.862;2022-11-11T02:38:59;3.03;;;1.63;;
18046;SDS011;9148;51.454;13.862;2022-11-11T02:41:25;2.00;;;1.20;;
18046;SDS011;9148;51.454;13.862;2022-11-11T02:44:09;1.67;;;1.10;;
18046;SDS011;9148;51.454;13.862;2022-11-11T02:46:34;0.83;;;0.67;;
18046;SDS011;9148;51.454;13.862;2022-11-11T02:49:00;4.20;;;2.30;;
18046;SDS011;9148;51.454;13.862;2022-11-11T02:51:26;6.40;;;3.33;;
18046;SDS011;9148;51.454;13.862;2022-11-11T02:53:51;2.40;;;2.20;;
18046;SDS011;9148;51.454;13.862;2022-11-11T02:56:22;6.87;;;3.40;;
18046;SDS011;9148;51.454;13.862;2022-11-11T02:59:09;6.13;;;3.30;;
18046;SDS011;9148;51.454;13.862;2022-11-11T03:01:35;5.10;;;2.83;;
18046;SDS011;9148;51.454;13.862;2022-11-11T03:04:01;3.93;;;2.80;;
18046;SDS011;9148;51.454;13.862;2022-11-11T03:06:26;4.40;;;1.87;;
18046;SDS011;9148;51.454;13.862;2022-11-11T03:08:52;9.63;;;2.73;;
18046;SDS011;9148;51.454;13.862;2022-11-11T03:11:18;2.80;;;2.30;;
18046;SDS011;9148;51.454;13.862;2022-11-11T03:13:52;2.87;;;2.17;;
18046;SDS011;9148;51.454;13.862;2022-11-11T03:16:21;3.60;;;2.80;;
18046;SDS011;9148;51.454;13.862;2022-11-11T03:19:06;3.70;;;2.67;;
18046;SDS011;9148;51.454;13.862;2022-11-11T03:21:32;4.20;;;2.47;;
18046;SDS011;9148;51.454;13.862;2022-11-11T03:23:58;5.40;;;2.47;;
18046;SDS011;9148;51.454;13.862;2022-11-11T03:26:23;8.97;;;2.47;;
18046;SDS011;9148;51.454;13.862;2022-11-11T03:28:49;3.43;;;2.37;;
18046;SDS011;9148;51.454;13.862;2022-11-11T03:31:15;4.20;;;2.47;;
18046;SDS011;9148;51.454;13.862;2022-11-11T03:33:41;3.30;;;2.10;;
18046;SDS011;9148;51.454;13.862;2022-11-11T03:36:07;5.17;;;2.63;;
18046;SDS011;9148;51.454;13.862;2022-11-11T03:38:33;4.20;;;2.30;;
18046;SDS011;9148;51.454;13.862;2022-11-11T03:40:58;3.00;;;2.40;;
18046;SDS011;9148;51.454;13.862;2022-11-11T03:43:27;2.77;;;1.57;;
18046;SDS011;9148;51.454;13.862;2022-11-11T03:45:57;1.97;;;1.77;;
18046;SDS011;9148;51.454;13.862;2022-11-11T03:48:25;2.77;;;2.33;;
18046;SDS011;9148;51.454;13.862;2022-11-11T03:50:53;9.07;;;2.60;;
18046;SDS011;9148;51.454;13.862;2022-11-11T03:53:19;2.80;;;1.53;;
18046;SDS011;9148;51.454;13.862;2022-11-11T03:55:46;2.10;;;1.90;;
18046;SDS011;9148;51.454;13.862;2022-11-11T03:58:12;2.27;;;2.07;;
18046;SDS011;9148;51.454;13.862;2022-11-11T04:00:38;3.33;;;1.73;;
18046;SDS011;9148;51.454;13.862;2022-11-11T04:03:14;1.77;;;1.67;;
18046;SDS011;9148;51.454;13.862;2022-11-11T04:06:00;2.43;;;1.97;;
18046;SDS011;9148;51.454;13.862;2022-11-11T04:08:45;1.87;;;1.63;;
18046;SDS011;9148;51.454;13.862;2022-11-11T04:11:30;1.77;;;1.63;;
18046;SDS011;9148;51.454;13.862;2022-11-11T04:14:02;2.20;;;1.77;;
18046;SDS011;9148;51.454;13.862;2022-11-11T04:16:50;5.33;;;2.53;;
18046;SDS011;9148;51.454;13.862;2022-11-11T04:19:15;2.13;;;1.77;;
18046;SDS011;9148;51.454;13.862;2022-11-11T04:22:00;3.20;;;2.33;;
18046;SDS011;9148;51.454;13.862;2022-11-11T04:24:25;2.80;;;1.90;;
18046;SDS011;9148;51.454;13.862;2022-11-11T04:27:14;2.87;;;1.87;;
18046;SDS011;9148;51.454;13.862;2022-11-11T04:29:41;1.90;;;1.70;;
18046;SDS011;9148;51.454;13.862;2022-11-11T04:32:08;1.57;;;1.47;;
18046;SDS011;9148;51.454;13.862;2022-11-11T04:34:55;3.80;;;1.77;;
18046;SDS011;9148;51.454;13.862;2022-11-11T04:37:23;2.47;;;2.07;;
18046;SDS011;9148;51.454;13.862;2022-11-11T04:39:52;1.37;;;1.27;;
18046;SDS011;9148;51.454;13.862;2022-11-11T04:42:37;3.80;;;1.90;;
18046;SDS011;9148;51.454;13.862;2022-11-11T04:45:06;1.80;;;1.57;;
18046;SDS011;9148;51.454;13.862;2022-11-11T04:47:55;2.27;;;1.63;;
18046;SDS011;9148;51.454;13.862;2022-11-11T04:50:38;3.40;;;1.83;;
18046;SDS011;9148;51.454;13.862;2022-11-11T04:53:06;2.40;;;1.87;;
18046;SDS011;9148;51.454;13.862;2022-11-11T04:55:35;2.13;;;1.80;;
18046;SDS011;9148;51.454;13.862;2022-11-11T04:58:21;6.07;;;1.87;;
18046;SDS011;9148;51.454;13.862;2022-11-11T05:00:49;1.57;;;1.47;;
18046;SDS011;9148;51.454;13.862;2022-11-11T05:03:15;2.30;;;1.57;;
18046;SDS011;9148;51.454;13.862;2022-11-11T05:05:51;1.53;;;1.27;;
18046;SDS011;9148;51.454;13.862;2022-11-11T05:08:43;3.67;;;2.30;;
18046;SDS011;9148;51.454;13.862;2022-11-11T05:13:54;4.47;;;2.53;;
18046;SDS011;9148;51.454;13.862;2022-11-11T05:16:43;4.03;;;2.03;;
18046;SDS011;9148;51.454;13.862;2022-11-11T05:19:33;3.30;;;1.87;;
18046;SDS011;9148;51.454;13.862;2022-11-11T05:22:18;1.87;;;1.20;;
18046;SDS011;9148;51.454;13.862;2022-11-11T05:24:48;1.90;;;1.80;;
18046;SDS011;9148;51.454;13.862;2022-11-11T05:27:33;1.60;;;1.43;;
18046;SDS011;9148;51.454;13.862;2022-11-11T05:29:58;4.90;;;2.03;;
18046;SDS011;9148;51.454;13.862;2022-11-11T05:32:24;1.83;;;1.60;;
18046;SDS011;9148;51.454;13.862;2022-11-11T05:34:50;2.63;;;2.10;;
18046;SDS011;9148;51.454;13.862;2022-11-11T05:37:16;2.47;;;1.83;;
18046;SDS011;9148;51.454;13.862;2022-11-11T05:39:42;3.33;;;2.20;;
18046;SDS011;9148;51.454;13.862;2022-11-11T05:42:09;10.30;;;2.67;;
18046;SDS011;9148;51.454;13.862;2022-11-11T05:44:35;1.37;;;1.27;;
18046;SDS011;9148;51.454;13.862;2022-11-11T05:47:01;3.57;;;2.17;;
18046;SDS011;9148;51.454;13.862;2022-11-11T05:49:27;2.17;;;1.87;;
18046;SDS011;9148;51.454;13.862;2022-11-11T05:51:53;3.43;;;1.70;;
18046;SDS011;9148;51.454;13.862;2022-11-11T05:54:22;2.03;;;1.63;;
18046;SDS011;9148;51.454;13.862;2022-11-11T05:56:48;3.33;;;2.00;;
18046;SDS011;9148;51.454;13.862;2022-11-11T05:59:14;2.50;;;2.13;;
18046;SDS011;9148;51.454;13.862;2022-11-11T06:01:40;2.00;;;1.80;;
18046;SDS011;9148;51.454;13.862;2022-11-11T06:04:06;1.93;;;1.63;;
18046;SDS011;9148;51.454;13.862;2022-11-11T06:06:33;2.47;;;2.27;;
18046;SDS011;9148;51.454;13.862;2022-11-11T06:08:59;3.60;;;1.57;;
18046;SDS011;9148;51.454;13.862;2022-11-11T06:11:26;3.63;;;2.43;;
18046;SDS011;9148;51.454;13.862;2022-11-11T06:13:52;1.53;;;1.30;;
18046;SDS011;9148;51.454;13.862;2022-11-11T06:16:18;2.77;;;2.40;;
18046;SDS011;9148;51.454;13.862;2022-11-11T06:18:44;4.57;;;2.53;;
18046;SDS011;9148;51.454;13.862;2022-11-11T06:21:10;3.07;;;2.77;;
18046;SDS011;9148;51.454;13.862;2022-11-11T06:23:36;4.17;;;2.57;;
18046;SDS011;9148;51.454;13.862;2022-11-11T06:26:02;3.20;;;2.57;;
18046;SDS011;9148;51.454;13.862;2022-11-11T06:28:38;3.57;;;2.50;;
18046;SDS011;9148;51.454;13.862;2022-11-11T06:31:13;3.67;;;2.80;;
18046;SDS011;9148;51.454;13.862;2022-11-11T06:33:41;2.97;;;2.57;;
18046;SDS011;9148;51.454;13.862;2022-11-11T06:36:08;2.53;;;2.33;;
18046;SDS011;9148;51.454;13.862;2022-11-11T06:38:37;2.70;;;2.30;;
18046;SDS011;9148;51.454;13.862;2022-11-11T06:41:06;2.97;;;2.57;;
18046;SDS011;9148;51.454;13.862;2022-11-11T06:43:34;2.63;;;2.27;;
18046;SDS011;9148;51.454;13.862;2022-11-11T06:46:00;4.53;;;3.27;;
18046;SDS011;9148;51.454;13.862;2022-11-11T06:48:26;4.10;;;3.10;;
18046;SDS011;9148;51.454;13.862;2022-11-11T06:50:53;2.60;;;2.40;;
18046;SDS011;9148;51.454;13.862;2022-11-11T06:53:20;3.37;;;2.77;;
18046;SDS011;9148;51.454;13.862;2022-11-11T06:55:46;7.17;;;4.27;;
18046;SDS011;9148;51.454;13.862;2022-11-11T06:58:17;2.97;;;2.17;;
18046;SDS011;9148;51.454;13.862;2022-11-11T07:00:44;2.90;;;2.67;;
18046;SDS011;9148;51.454;13.862;2022-11-11T07:03:12;7.20;;;3.90;;
18046;SDS011;9148;51.454;13.862;2022-11-11T07:05:39;5.43;;;3.63;;
18046;SDS011;9148;51.454;13.862;2022-11-11T07:08:07;6.70;;;3.93;;
18046;SDS011;9148;51.454;13.862;2022-11-11T07:10:37;17.80;;;4.60;;
18046;SDS011;9148;51.454;13.862;2022-11-11T07:13:07;4.53;;;3.07;;
18046;SDS011;9148;51.454;13.862;2022-11-11T07:15:33;16.37;;;7.93;;
18046;SDS011;9148;51.454;13.862;2022-11-11T07:18:00;11.53;;;8.33;;
18046;SDS011;9148;51.454;13.862;2022-11-11T07:20:26;6.90;;;4.57;;
18046;SDS011;9148;51.454;13.862;2022-11-11T07:22:51;5.67;;;4.53;;
18046;SDS011;9148;51.454;13.862;2022-11-11T07:25:17;3.50;;;3.13;;
18046;SDS011;9148;51.454;13.862;2022-11-11T07:27:43;4.63;;;2.57;;
18046;SDS011;9148;51.454;13.862;2022-11-11T07:30:09;6.63;;;3.30;;
18046;SDS011;9148;51.454;13.862;2022-11-11T07:32:36;3.77;;;2.70;;
18046;SDS011;9148;51.454;13.862;2022-11-11T07:35:09;2.43;;;2.20;;
18046;SDS011;9148;51.454;13.862;2022-11-11T07:37:35;3.80;;;2.43;;
18046;SDS011;9148;51.454;13.862;2022-11-11T07:40:02;4.40;;;3.20;;
18046;SDS011;9148;51.454;13.862;2022-11-11T07:42:28;3.40;;;2.93;;
18046;SDS011;9148;51.454;13.862;2022-11-11T07:44:53;3.73;;;2.40;;
18046;SDS011;9148;51.454;13.862;2022-11-11T07:47:19;2.17;;;2.07;;
18046;SDS011;9148;51.454;13.862;2022-11-11T07:49:44;3.73;;;2.37;;
18046;SDS011;9148;51.454;13.862;2022-11-11T07:52:10;2.97;;;2.00;;
18046;SDS011;9148;51.454;13.862;2022-11-11T07:54:36;4.30;;;2.73;;
18046;SDS011;9148;51.454;13.862;2022-11-11T07:57:01;2.73;;;2.00;;
18046;SDS011;9148;51.454;13.862;2022-11-11T07:59:27;4.80;;;2.33;;
18046;SDS011;9148;51.454;13.862;2022-11-11T08:01:53;6.30;;;3.33;;
18046;SDS011;9148;51.454;13.862;2022-11-11T08:04:18;6.10;;;2.23;;
18046;SDS011;9148;51.454;13.862;2022-11-11T08:06:44;4.40;;;2.80;;
18046;SDS011;9148;51.454;13.862;2022-11-11T08:09:10;3.30;;;2.30;;
18046;SDS011;9148;51.454;13.862;2022-11-11T08:11:35;4.10;;;2.37;;
18046;SDS011;9148;51.454;13.862;2022-11-11T08:14:19;4.73;;;2.20;;
18046;SDS011;9148;51.454;13.862;2022-11-11T08:16:45;4.20;;;2.87;;
18046;SDS011;9148;51.454;13.862;2022-11-11T08:19:11;9.73;;;2.93;;
18046;SDS011;9148;51.454;13.862;2022-11-11T08:21:36;4.67;;;3.00;;
18046;SDS011;9148;51.454;13.862;2022-11-11T08:24:02;3.33;;;2.90;;
18046;SDS011;9148;51.454;13.862;2022-11-11T08:26:28;2.77;;;2.57;;
18046;SDS011;9148;51.454;13.862;2022-11-11T08:28:53;2.77;;;2.53;;
18046;SDS011;9148;51.454;13.862;2022-11-11T08:31:19;5.70;;;3.03;;
18046;SDS011;9148;51.454;13.862;2022-11-11T08:33:45;3.30;;;2.37;;
18046;SDS011;9148;51.454;13.862;2022-11-11T08:36:10;3.97;;;3.20;;
18046;SDS011;9148;51.454;13.862;2022-11-11T08:38:37;7.53;;;3.57;;
18046;SDS011;9148;51.454;13.862;2022-11-11T08:41:04;6.33;;;3.60;;
18046;SDS011;9148;51.454;13.862;2022-11-11T08:43:32;3.87;;;2.00;;
18046;SDS011;9148;51.454;13.862;2022-11-11T08:45:58;2.30;;;2.10;;
18046;SDS011;9148;51.454;13.862;2022-11-11T08:48:25;1.70;;;1.27;;
18046;SDS011;9148;51.454;13.862;2022-11-11T08:50:51;2.80;;;0.70;;
18046;SDS011;9148;51.454;13.862;2022-11-11T08:53:18;1.20;;;1.00;;
18046;SDS011;9148;51.454;13.862;2022-11-11T08:55:44;1.90;;;0.67;;
18046;SDS011;9148;51.454;13.862;2022-11-11T08:58:10;1.60;;;0.83;;
18046;SDS011;9148;51.454;13.862;2022-11-11T09:00:36;0.80;;;0.60;;
18046;SDS011;9148;51.454;13.862;2022-11-11T09:03:03;2.60;;;1.07;;
18046;SDS011;9148;51.454;13.862;2022-11-11T09:05:31;0.87;;;0.70;;
18046;SDS011;9148;51.454;13.862;2022-11-11T09:08:01;2.17;;;1.07;;
18046;SDS011;9148;51.454;13.862;2022-11-11T09:10:32;1.70;;;0.50;;
18046;SDS011;9148;51.454;13.862;2022-11-11T09:12:59;2.67;;;0.87;;
18046;SDS011;9148;51.454;13.862;2022-11-11T09:15:25;0.93;;;0.83;;
18046;SDS011;9148;51.454;13.862;2022-11-11T09:17:51;0.70;;;0.70;;
18046;SDS011;9148;51.454;13.862;2022-11-11T09:20:17;0.53;;;0.40;;
18046;SDS011;9148;51.454;13.862;2022-11-11T09:22:44;1.83;;;0.60;;
18046;SDS011;9148;51.454;13.862;2022-11-11T09:25:11;0.93;;;0.77;;
18046;SDS011;9148;51.454;13.862;2022-11-11T09:27:37;0.50;;;0.23;;
18046;SDS011;9148;51.454;13.862;2022-11-11T09:30:04;0.90;;;0.47;;
18046;SDS011;9148;51.454;13.862;2022-11-11T09:32:31;1.90;;;0.53;;
18046;SDS011;9148;51.454;13.862;2022-11-11T09:34:57;0.73;;;0.73;;
18046;SDS011;9148;51.454;13.862;2022-11-11T09:37:24;0.70;;;0.43;;
18046;SDS011;9148;51.454;13.862;2022-11-11T09:39:50;1.27;;;0.80;;
18046;SDS011;9148;51.454;13.862;2022-11-11T09:45:13;0.47;;;0.43;;
18046;SDS011;9148;51.454;13.862;2022-11-11T09:47:58;0.97;;;0.70;;
18046;SDS011;9148;51.454;13.862;2022-11-11T09:50:47;1.33;;;0.73;;
18046;SDS011;9148;51.454;13.862;2022-11-11T09:56:18;0.50;;;0.50;;
18046;SDS011;9148;51.454;13.862;2022-11-11T09:58:51;2.13;;;0.87;;
18046;SDS011;9148;51.454;13.862;2022-11-11T10:01:27;0.43;;;0.43;;
18046;SDS011;9148;51.454;13.862;2022-11-11T10:07:18;0.47;;;0.40;;
18046;SDS011;9148;51.454;13.862;2022-11-11T10:12:43;0.93;;;0.70;;
18046;SDS011;9148;51.454;13.862;2022-11-11T10:15:14;0.50;;;0.30;;
18046;SDS011;9148;51.454;13.862;2022-11-11T10:20:46;5.15;;;0.82;;
18046;SDS011;9148;51.454;13.862;2022-11-11T10:23:19;0.88;;;0.57;;
18046;SDS011;9148;51.454;13.862;2022-11-11T10:25:55;1.40;;;0.60;;
18046;SDS011;9148;51.454;13.862;2022-11-11T10:28:23;1.45;;;0.57;;
18046;SDS011;9148;51.454;13.862;2022-11-11T10:30:55;0.60;;;0.52;;
18046;SDS011;9148;51.454;13.862;2022-11-11T10:35:54;2.13;;;0.85;;
18046;SDS011;9148;51.454;13.862;2022-11-11T10:38:34;0.73;;;0.30;;
18046;SDS011;9148;51.454;13.862;2022-11-11T10:43:47;0.40;;;0.40;;
18046;SDS011;9148;51.454;13.862;2022-11-11T10:51:36;0.43;;;0.32;;
18046;SDS011;9148;51.454;13.862;2022-11-11T10:54:22;0.47;;;0.47;;
18046;SDS011;9148;51.454;13.862;2022-11-11T10:57:09;2.08;;;0.63;;
18046;SDS011;9148;51.454;13.862;2022-11-11T11:00:02;1.95;;;0.68;;
18046;SDS011;9148;51.454;13.862;2022-11-11T11:02:56;0.68;;;0.57;;
18046;SDS011;9148;51.454;13.862;2022-11-11T11:05:47;0.60;;;0.32;;
18046;SDS011;9148;51.454;13.862;2022-11-11T11:08:34;1.67;;;0.57;;
18046;SDS011;9148;51.454;13.862;2022-11-11T11:11:25;1.23;;;0.70;;
18046;SDS011;9148;51.454;13.862;2022-11-11T11:13:59;0.88;;;0.45;;
18046;SDS011;9148;51.454;13.862;2022-11-11T11:16:41;2.10;;;0.40;;
18046;SDS011;9148;51.454;13.862;2022-11-11T11:19:24;1.33;;;0.73;;
18046;SDS011;9148;51.454;13.862;2022-11-11T11:24:30;3.53;;;0.85;;
18046;SDS011;9148;51.454;13.862;2022-11-11T11:26:59;2.92;;;0.35;;
18046;SDS011;9148;51.454;13.862;2022-11-11T11:29:28;3.17;;;0.90;;
18046;SDS011;9148;51.454;13.862;2022-11-11T11:34:58;2.17;;;0.55;;
18046;SDS011;9148;51.454;13.862;2022-11-11T11:37:24;0.47;;;0.30;;
18046;SDS011;9148;51.454;13.862;2022-11-11T11:40:00;0.50;;;0.35;;
18046;SDS011;9148;51.454;13.862;2022-11-11T11:42:34;0.57;;;0.40;;
18046;SDS011;9148;51.454;13.862;2022-11-11T11:50:50;0.70;;;0.40;;
18046;SDS011;9148;51.454;13.862;2022-11-11T11:53:24;2.72;;;0.50;;
18046;SDS011;9148;51.454;13.862;2022-11-11T11:56:11;0.82;;;0.47;;
18046;SDS011;9148;51.454;13.862;2022-11-11T12:01:59;1.02;;;0.45;;
18046;SDS011;9148;51.454;13.862;2022-11-11T12:07:45;0.65;;;0.60;;
18046;SDS011;9148;51.454;13.862;2022-11-11T12:13:37;0.52;;;0.32;;
18046;SDS011;9148;51.454;13.862;2022-11-11T12:22:24;2.25;;;0.60;;
18046;SDS011;9148;51.454;13.862;2022-11-11T12:30:27;0.70;;;0.50;;
18046;SDS011;9148;51.454;13.862;2022-11-11T12:36:35;2.00;;;0.70;;
18046;SDS011;9148;51.454;13.862;2022-11-11T12:39:24;0.90;;;0.40;;
18046;SDS011;9148;51.454;13.862;2022-11-11T12:45:16;0.30;;;0.30;;
18046;SDS011;9148;51.454;13.862;2022-11-11T12:47:55;0.63;;;0.30;;
18046;SDS011;9148;51.454;13.862;2022-11-11T12:50:40;0.40;;;0.32;;
18046;SDS011;9148;51.454;13.862;2022-11-11T12:53:18;2.75;;;0.52;;
18046;SDS011;9148;51.454;13.862;2022-11-11T12:56:24;4.13;;;0.43;;
18046;SDS011;9148;51.454;13.862;2022-11-11T13:05:19;3.92;;;0.35;;
18046;SDS011;9148;51.454;13.862;2022-11-11T13:11:02;0.95;;;0.47;;
18046;SDS011;9148;51.454;13.862;2022-11-11T13:17:13;0.77;;;0.57;;
18046;SDS011;9148;51.454;13.862;2022-11-11T13:19:59;0.63;;;0.45;;
18046;SDS011;9148;51.454;13.862;2022-11-11T13:22:53;1.55;;;0.65;;
18046;SDS011;9148;51.454;13.862;2022-11-11T13:25:23;1.33;;;0.63;;
18046;SDS011;9148;51.454;13.862;2022-11-11T13:27:58;0.30;;;0.30;;
18046;SDS011;9148;51.454;13.862;2022-11-11T13:33:43;3.17;;;0.40;;
18046;SDS011;9148;51.454;13.862;2022-11-11T13:36:17;0.38;;;0.38;;
18046;SDS011;9148;51.454;13.862;2022-11-11T13:38:47;0.20;;;0.20;;
18046;SDS011;9148;51.454;13.862;2022-11-11T13:41:28;0.57;;;0.50;;
18046;SDS011;9148;51.454;13.862;2022-11-11T13:44:00;0.47;;;0.43;;
18046;SDS011;9148;51.454;13.862;2022-11-11T13:46:42;2.08;;;0.60;;
18046;SDS011;9148;51.454;13.862;2022-11-11T13:49:28;9.15;;;0.63;;
18046;SDS011;9148;51.454;13.862;2022-11-11T13:52:04;0.65;;;0.30;;
18046;SDS011;9148;51.454;13.862;2022-11-11T13:54:57;1.90;;;0.32;;
18046;SDS011;9148;51.454;13.862;2022-11-11T13:57:26;0.43;;;0.43;;
18046;SDS011;9148;51.454;13.862;2022-11-11T14:00:06;1.45;;;0.55;;
18046;SDS011;9148;51.454;13.862;2022-11-11T14:02:41;0.50;;;0.40;;
18046;SDS011;9148;51.454;13.862;2022-11-11T14:12:49;1.15;;;0.43;;
18046;SDS011;9148;51.454;13.862;2022-11-11T14:20:46;0.52;;;0.52;;
18046;SDS011;9148;51.454;13.862;2022-11-11T14:25:43;1.13;;;0.50;;
18046;SDS011;9148;51.454;13.862;2022-11-11T14:30:50;0.80;;;0.60;;
18046;SDS011;9148;51.454;13.862;2022-11-11T14:42:02;2.53;;;0.80;;
18046;SDS011;9148;51.454;13.862;2022-11-11T14:49:45;6.77;;;0.90;;
18046;SDS011;9148;51.454;13.862;2022-11-11T15:00:16;0.37;;;0.37;;
18046;SDS011;9148;51.454;13.862;2022-11-11T15:02:50;1.50;;;0.97;;
18046;SDS011;9148;51.454;13.862;2022-11-11T15:08:28;1.23;;;1.00;;
18046;SDS011;9148;51.454;13.862;2022-11-11T15:11:28;1.90;;;1.70;;
18046;SDS011;9148;51.454;13.862;2022-11-11T15:34:19;9.23;;;4.40;;
18046;SDS011;9148;51.454;13.862;2022-11-11T15:37:17;6.50;;;3.37;;
18046;SDS011;9148;51.454;13.862;2022-11-11T15:45:02;5.10;;;2.80;;
18046;SDS011;9148;51.454;13.862;2022-11-11T15:47:44;3.27;;;2.27;;
18046;SDS011;9148;51.454;13.862;2022-11-11T15:50:15;5.40;;;2.80;;
18046;SDS011;9148;51.454;13.862;2022-11-11T15:52:55;5.73;;;3.70;;
18046;SDS011;9148;51.454;13.862;2022-11-11T15:55:24;5.77;;;3.30;;
18046;SDS011;9148;51.454;13.862;2022-11-11T15:58:23;5.93;;;3.80;;
18046;SDS011;9148;51.454;13.862;2022-11-11T16:00:49;3.67;;;3.37;;
18046;SDS011;9148;51.454;13.862;2022-11-11T16:03:17;4.30;;;2.70;;
18046;SDS011;9148;51.454;13.862;2022-11-11T16:05:49;6.50;;;2.17;;
18046;SDS011;9148;51.454;13.862;2022-11-11T16:08:16;3.23;;;1.80;;
18046;SDS011;9148;51.454;13.862;2022-11-11T16:11:05;3.50;;;1.83;;
18046;SDS011;9148;51.454;13.862;2022-11-11T16:13:49;1.47;;;1.37;;
18046;SDS011;9148;51.454;13.862;2022-11-11T16:16:23;3.87;;;1.57;;
18046;SDS011;9148;51.454;13.862;2022-11-11T16:18:54;2.00;;;1.60;;
18046;SDS011;9148;51.454;13.862;2022-11-11T16:21:34;5.20;;;2.77;;
18046;SDS011;9148;51.454;13.862;2022-11-11T16:24:23;7.97;;;2.83;;
18046;SDS011;9148;51.454;13.862;2022-11-11T16:26:59;6.23;;;3.47;;
18046;SDS011;9148;51.454;13.862;2022-11-11T16:29:38;4.43;;;3.47;;
18046;SDS011;9148;51.454;13.862;2022-11-11T16:34:50;2.33;;;2.13;;
18046;SDS011;9148;51.454;13.862;2022-11-11T16:37:18;9.57;;;1.70;;
18046;SDS011;9148;51.454;13.862;2022-11-11T16:39:45;4.53;;;2.13;;
18046;SDS011;9148;51.454;13.862;2022-11-11T16:42:19;2.67;;;1.83;;
18046;SDS011;9148;51.454;13.862;2022-11-11T16:44:59;1.83;;;1.47;;
18046;SDS011;9148;51.454;13.862;2022-11-11T16:47:44;1.20;;;1.10;;
18046;SDS011;9148;51.454;13.862;2022-11-11T16:52:51;5.07;;;1.67;;
18046;SDS011;9148;51.454;13.862;2022-11-11T16:57:55;4.83;;;1.37;;
18046;SDS011;9148;51.454;13.862;2022-11-11T17:00:34;1.53;;;0.90;;
18046;SDS011;9148;51.454;13.862;2022-11-11T17:03:09;2.63;;;1.60;;
18046;SDS011;9148;51.454;13.862;2022-11-11T17:05:53;3.23;;;1.90;;
18046;SDS011;9148;51.454;13.862;2022-11-11T17:11:10;1.70;;;1.40;;
18046;SDS011;9148;51.454;13.862;2022-11-11T17:14:04;2.80;;;1.87;;
18046;SDS011;9148;51.454;13.862;2022-11-11T17:16:30;2.73;;;1.77;;
18046;SDS011;9148;51.454;13.862;2022-11-11T17:18:58;2.07;;;1.57;;
18046;SDS011;9148;51.454;13.862;2022-11-11T17:21:24;3.83;;;2.60;;
18046;SDS011;9148;51.454;13.862;2022-11-11T17:23:51;13.97;;;4.40;;
18046;SDS011;9148;51.454;13.862;2022-11-11T17:26:17;17.37;;;6.33;;
18046;SDS011;9148;51.454;13.862;2022-11-11T17:28:43;15.23;;;8.77;;
18046;SDS011;9148;51.454;13.862;2022-11-11T17:31:09;13.03;;;9.13;;
18046;SDS011;9148;51.454;13.862;2022-11-11T17:33:36;13.53;;;7.23;;
18046;SDS011;9148;51.454;13.862;2022-11-11T17:36:02;6.40;;;5.57;;
18046;SDS011;9148;51.454;13.862;2022-11-11T17:38:33;9.97;;;5.50;;
18046;SDS011;9148;51.454;13.862;2022-11-11T17:41:01;7.00;;;5.23;;
18046;SDS011;9148;51.454;13.862;2022-11-11T17:43:27;7.90;;;6.07;;
18046;SDS011;9148;51.454;13.862;2022-11-11T17:45:52;7.43;;;4.70;;
18046;SDS011;9148;51.454;13.862;2022-11-11T17:48:18;12.17;;;5.80;;
18046;SDS011;9148;51.454;13.862;2022-11-11T17:50:44;13.53;;;6.20;;
18046;SDS011;9148;51.454;13.862;2022-11-11T17:53:09;7.07;;;4.53;;
18046;SDS011;9148;51.454;13.862;2022-11-11T17:55:35;7.33;;;4.83;;
18046;SDS011;9148;51.454;13.862;2022-11-11T17:58:01;3.80;;;2.90;;
18046;SDS011;9148;51.454;13.862;2022-11-11T18:00:27;6.73;;;2.97;;
18046;SDS011;9148;51.454;13.862;2022-11-11T18:02:53;5.30;;;2.70;;
18046;SDS011;9148;51.454;13.862;2022-11-11T18:05:20;6.17;;;2.50;;
18046;SDS011;9148;51.454;13.862;2022-11-11T18:07:46;2.40;;;2.20;;